Time;durP1;ratioP1;P1;durP2;ratioP2;P2;SDS_P1;SDS_P2;PMS_P1;PMS_P2;Temp;Humidity;BMP_temperature;BMP_pressure;BME280_temperature;BME280_humidity;BME280_pressure;Samples;Min_cycle;Max_cycle;Signal;HPM_P1;HPM_P2
2021/07/15 00:00:14;;;;;;;;;;;;;;;-142.75;81.54;76560.44;5055858;28;20572;-77
2021/07/15 00:02:39;;;;;;;;;;;;;;;-142.75;81.45;76554.53;5053412;28;19916;-80
2021/07/15 00:05:07;;;;;;;;;;;;;;;-142.75;81.31;76554.53;5071674;28;19981;-80
2021/07/15 00:07:32;;;;;;;;;;;;;;;-142.75;81.25;76556.50;5053593;28;19925;-78
2021/07/15 00:09:57;;;;;;;;;;;;;;;-142.75;81.23;76554.53;5061260;28;20447;-80
2021/07/15 00:12:22;;;;;;;;;;;;;;;-142.75;81.14;76554.53;5053831;28;19917;-83
2021/07/15 00:14:48;;;;;;;;;;;;;;;-142.75;81.24;76556.50;5054409;28;19951;-83
2021/07/15 00:17:13;;;;;;;;;;;;;;;-142.75;81.29;76566.34;5072088;28;20425;-79
2021/07/15 00:19:40;;;;;;;;;;;;;;;-142.75;81.38;76566.34;5070867;28;19993;-79
2021/07/15 00:22:05;;;;;;;;;;;;;;;-142.75;81.42;76564.38;5052957;28;20057;-80
2021/07/15 00:24:31;;;;;;;;;;;;;;;-142.75;81.56;76560.44;5072148;28;19924;-82
2021/07/15 00:26:56;;;;;;;;;;;;;;;-142.75;81.58;76568.31;5071544;28;19920;-81
2021/07/15 00:29:22;;;;;;;;;;;;;;;-142.75;81.66;76568.31;5061539;28;20405;-82
2021/07/15 00:31:47;;;;;;;;;;;;;;;-142.75;81.66;76568.31;5065500;28;20282;-79
2021/07/15 00:34:12;;;;;;;;;;;;;;;-142.75;81.70;76572.25;5072087;28;19963;-82
2021/07/15 00:36:37;;;;;;;;;;;;;;;-142.75;81.75;76570.28;5058223;28;19917;-80
2021/07/15 00:39:04;;;;;;;;;;;;;;;-142.75;81.81;76576.19;5076136;28;19924;-79
2021/07/15 00:41:29;;;;;;;;;;;;;;;-142.75;81.81;76580.13;5056991;28;19916;-81
2021/07/15 00:43:54;;;;;;;;;;;;;;;-142.75;81.88;76574.22;5056849;28;19923;-79
2021/07/15 00:46:19;;;;;;;;;;;;;;;-142.75;81.88;76572.25;5055794;28;19952;-80
2021/07/15 00:48:45;;;;;;;;;;;;;;;-142.75;81.96;76568.31;5055494;28;20181;-81
2021/07/15 00:51:10;;;;;;;;;;;;;;;-142.75;81.90;76568.31;5073208;28;19925;-82
2021/07/15 00:53:35;;;;;;;;;;;;;;;-142.75;81.97;76578.16;5074769;28;19920;-78
2021/07/15 00:56:01;;;;;;;;;;;;;;;-142.75;82.02;76582.09;5056613;28;20388;-82
2021/07/15 00:58:26;;;;;;;;;;;;;;;-142.75;82.05;76586.03;5056030;28;19927;-83
2021/07/15 01:00:52;;;;;;;;;;;;;;;-142.75;82.14;76582.09;5067334;28;19972;-79
2021/07/15 01:03:18;;;;;;;;;;;;;;;-142.75;82.17;76578.16;5056513;28;19947;-80
2021/07/15 01:05:45;;;;;;;;;;;;;;;-142.75;82.08;76586.03;5064960;28;19921;-79
2021/07/15 01:08:11;;;;;;;;;;;;;;;-142.75;82.12;76578.16;5070209;28;19924;-79
2021/07/15 01:10:38;;;;;;;;;;;;;;;-142.75;82.07;76582.09;5057338;28;19916;-79
2021/07/15 01:13:03;;;;;;;;;;;;;;;-142.75;82.06;76586.03;5070809;28;19923;-81
2021/07/15 01:15:34;;;;;;;;;;;;;;;-142.75;82.13;76580.13;5055835;28;19916;-83
2021/07/15 01:18:11;;;;;;;;;;;;;;;-142.75;82.17;76582.09;5061441;28;20004;-81
2021/07/15 01:20:48;;;;;;;;;;;;;;;-142.75;82.25;76582.09;5074774;28;19928;-80
2021/07/15 01:23:26;;;;;;;;;;;;;;;-142.75;82.36;76582.09;5074437;28;19966;-78
2021/07/15 01:25:58;;;;;;;;;;;;;;;-142.75;82.28;76586.03;5056705;28;19976;-79
2021/07/15 01:28:26;;;;;;;;;;;;;;;-142.75;82.33;76586.03;5055144;28;19972;-80
2021/07/15 01:30:58;;;;;;;;;;;;;;;-142.75;82.29;76586.03;5054285;28;20015;-80
2021/07/15 01:33:26;;;;;;;;;;;;;;;-142.75;82.21;76593.91;5054578;28;19917;-80
2021/07/15 01:35:54;;;;;;;;;;;;;;;-142.75;82.28;76597.84;5053998;28;19917;-81
2021/07/15 01:38:22;;;;;;;;;;;;;;;-142.75;82.24;76601.78;5054711;28;19942;-83
2021/07/15 01:40:51;;;;;;;;;;;;;;;-142.75;82.19;76593.91;5068454;28;20347;-81
2021/07/15 01:43:19;;;;;;;;;;;;;;;-142.75;82.30;76586.03;5055846;28;19974;-80
2021/07/15 01:45:45;;;;;;;;;;;;;;;-142.75;82.33;76593.91;5073429;28;19970;-79
2021/07/15 01:48:11;;;;;;;;;;;;;;;-142.75;82.29;76603.75;5056078;28;19916;-80
2021/07/15 01:50:37;;;;;;;;;;;;;;;-142.75;82.27;76595.88;5067638;28;19916;-79
2021/07/15 01:53:03;;;;;;;;;;;;;;;-142.75;82.27;76593.91;5054039;28;19916;-78
2021/07/15 01:55:28;;;;;;;;;;;;;;;-142.75;82.32;76586.03;5052962;28;20003;-81
2021/07/15 01:57:54;;;;;;;;;;;;;;;-142.75;82.26;76593.91;5053430;28;20018;-79
2021/07/15 02:00:19;;;;;;;;;;;;;;;-142.75;82.39;76586.03;5063035;28;20404;-79
2021/07/15 02:02:45;;;;;;;;;;;;;;;-142.75;82.39;76588.00;5072936;28;20403;-80
2021/07/15 02:05:11;;;;;;;;;;;;;;;-142.75;82.45;76582.09;5067656;28;20378;-80
2021/07/15 02:07:39;;;;;;;;;;;;;;;-142.75;82.32;76586.03;5054461;28;19920;-81
2021/07/15 02:10:06;;;;;;;;;;;;;;;-142.75;82.45;76582.09;5054368;28;19922;-80
2021/07/15 02:12:31;;;;;;;;;;;;;;;-142.75;82.48;76578.16;5054704;28;19920;-81
2021/07/15 02:14:57;;;;;;;;;;;;;;;-142.75;82.48;76582.09;5061275;28;19986;-82
2021/07/15 02:17:23;;;;;;;;;;;;;;;-142.75;82.57;76582.09;5072141;28;19916;-81
2021/07/15 02:19:49;;;;;;;;;;;;;;;-142.75;82.63;76578.16;5072389;22;20387;-83
2021/07/15 02:22:15;;;;;;;;;;;;;;;-142.75;82.66;76582.09;5037263;28;19928;-81
2021/07/15 02:24:43;;;;;;;;;;;;;;;-142.75;82.69;76582.09;5044258;28;20373;-83
2021/07/15 02:27:09;;;;;;;;;;;;;;;-142.75;82.61;76586.03;5047249;28;19999;-84
2021/07/15 02:29:36;;;;;;;;;;;;;;;-142.75;82.73;76582.09;5037220;28;20394;-82
2021/07/15 02:32:04;;;;;;;;;;;;;;;-142.75;82.79;76584.06;5026984;28;19968;-81
2021/07/15 02:34:35;;;;;;;;;;;;;;;-142.75;82.88;76586.03;5021917;28;20004;-83
2021/07/15 02:37:01;;;;;;;;;;;;;;;-142.75;82.96;76595.88;5019996;28;20581;-81
2021/07/15 02:39:26;;;;;;;;;;;;;;;-142.75;83.03;76591.94;5021149;28;19963;-85
2021/07/15 02:41:51;;;;;;;;;;;;;;;-142.75;83.06;76591.94;5030251;28;19917;-83
2021/07/15 02:44:16;;;;;;;;;;;;;;;-142.75;83.11;76597.84;5017728;28;20394;-85
2021/07/15 02:46:42;;;;;;;;;;;;;;;-142.75;83.20;76597.84;5021920;28;20297;-83
2021/07/15 02:49:07;;;;;;;;;;;;;;;-142.75;83.18;76591.94;5030802;28;19940;-82
2021/07/15 02:51:32;;;;;;;;;;;;;;;-142.75;83.12;76595.88;5029471;28;19924;-80
2021/07/15 02:53:59;;;;;;;;;;;;;;;-142.75;83.25;76593.91;5030565;28;20007;-82
2021/07/15 02:56:24;;;;;;;;;;;;;;;-142.75;83.36;76593.91;5023208;28;19917;-82
2021/07/15 02:59:04;;;;;;;;;;;;;;;-142.75;83.29;76593.91;5030449;28;20321;-85
2021/07/15 03:01:33;;;;;;;;;;;;;;;-142.75;83.39;76593.91;5034352;28;20280;-84
2021/07/15 03:04:17;;;;;;;;;;;;;;;-142.75;83.40;76601.78;5032272;28;19921;-83
2021/07/15 03:06:43;;;;;;;;;;;;;;;-142.75;83.41;76603.75;5030536;28;19960;-84
2021/07/15 03:09:13;;;;;;;;;;;;;;;-142.75;83.47;76609.66;5020377;28;19917;-82
2021/07/15 03:11:43;;;;;;;;;;;;;;;-142.75;83.49;76607.69;5038224;28;20015;-82
2021/07/15 03:14:08;;;;;;;;;;;;;;;-142.75;83.54;76607.69;5014561;28;19971;-80
2021/07/15 03:16:37;;;;;;;;;;;;;;;-142.75;83.66;76599.81;5030339;28;19921;-86
2021/07/15 03:19:04;;;;;;;;;;;;;;;-142.75;83.70;76601.78;5030159;28;20298;-80
2021/07/15 03:21:30;;;;;;;;;;;;;;;-142.75;83.87;76599.81;5029906;28;19921;-85
2021/07/15 03:23:57;;;;;;;;;;;;;;;-142.75;83.88;76597.84;5037888;28;19921;-83
2021/07/15 03:26:22;;;;;;;;;;;;;;;-142.75;83.94;76603.75;5018684;28;20410;-81
2021/07/15 03:28:50;;;;;;;;;;;;;;;-142.75;83.95;76601.78;5016892;28;19953;-81
2021/07/15 03:31:15;;;;;;;;;;;;;;;-142.75;83.93;76613.59;5018664;28;19921;-84
2021/07/15 03:33:41;;;;;;;;;;;;;;;-142.75;83.95;76611.63;5019067;28;19918;-83
2021/07/15 03:36:07;;;;;;;;;;;;;;;-142.75;83.93;76615.56;5029928;28;20015;-85
2021/07/15 03:38:33;;;;;;;;;;;;;;;-142.75;83.98;76625.41;5029898;28;20008;-82
2021/07/15 03:41:00;;;;;;;;;;;;;;;-142.75;83.99;76625.41;5029687;28;19967;-86
2021/07/15 03:43:25;;;;;;;;;;;;;;;-142.75;83.99;76629.34;5017768;28;19917;-85
2021/07/15 03:45:51;;;;;;;;;;;;;;;-142.75;83.93;76629.34;5029753;28;19983;-87
2021/07/15 03:48:16;;;;;;;;;;;;;;;-142.75;83.78;76627.38;5029870;28;19971;-79
2021/07/15 03:50:42;;;;;;;;;;;;;;;-142.75;83.74;76635.25;5029636;28;19924;-83
2021/07/15 03:53:08;;;;;;;;;;;;;;;-142.75;83.70;76621.47;5029994;28;19924;-84
2021/07/15 03:55:35;;;;;;;;;;;;;;;-142.75;83.62;76625.41;5041100;28;19917;-83
2021/07/15 03:58:03;;;;;;;;;;;;;;;-142.75;83.57;76621.47;5037353;28;20024;-86
2021/07/15 04:00:28;;;;;;;;;;;;;;;-142.75;83.56;76621.47;5013602;28;20004;-86
2021/07/15 04:02:56;;;;;;;;;;;;;;;-142.75;83.57;76621.47;5025709;28;20003;-84
2021/07/15 04:05:22;;;;;;;;;;;;;;;-142.75;83.51;76627.38;5024568;28;19925;-82
2021/07/15 04:07:49;;;;;;;;;;;;;;;-142.75;83.46;76625.41;5033770;28;19917;-82
2021/07/15 04:10:14;;;;;;;;;;;;;;;-142.75;83.53;76633.28;5033388;28;19924;-81
2021/07/15 04:12:41;;;;;;;;;;;;;;;-142.75;83.54;76639.19;5033666;28;19921;-84
2021/07/15 04:15:14;;;;;;;;;;;;;;;-142.75;83.44;76633.28;5024045;28;19979;-82
2021/07/15 04:17:46;;;;;;;;;;;;;;;-142.75;83.39;76637.22;5033998;28;19973;-83
2021/07/15 04:20:11;;;;;;;;;;;;;;;-142.75;83.29;76637.22;5022564;28;20301;-84
2021/07/15 04:22:38;;;;;;;;;;;;;;;-142.75;83.14;76633.28;5033342;28;19952;-80
2021/07/15 04:25:04;;;;;;;;;;;;;;;-142.75;83.14;76633.28;5022807;28;20299;-82
2021/07/15 04:27:29;;;;;;;;;;;;;;;-142.75;83.07;76637.22;5025048;28;19917;-85
2021/07/15 04:30:04;;;;;;;;;;;;;;;-142.75;82.96;76641.16;5032949;28;19917;-85
2021/07/15 04:32:50;;;;;;;;;;;;;;;-142.75;82.75;76641.16;5032560;28;19963;-83
2021/07/15 04:35:15;;;;;;;;;;;;;;;-142.75;82.60;76637.22;5033341;28;19924;-85
2021/07/15 04:37:42;;;;;;;;;;;;;;;-142.75;82.27;76641.16;5038604;28;19918;-82
2021/07/15 04:40:09;;;;;;;;;;;;;;;-142.75;82.00;76633.28;5020103;28;19972;-86
2021/07/15 04:42:34;;;;;;;;;;;;;;;-142.75;81.84;76637.22;5024211;28;20394;-84
2021/07/15 04:45:00;;;;;;;;;;;;;;;-142.75;81.64;76639.19;5019696;28;19925;-84
2021/07/15 04:47:26;;;;;;;;;;;;;;;-142.75;81.52;76639.19;5038866;28;19921;-84
2021/07/15 04:49:51;;;;;;;;;;;;;;;-142.75;81.33;76639.19;5024542;28;19917;-82
2021/07/15 04:52:18;;;;;;;;;;;;;;;-142.75;81.13;76641.16;5032732;28;20283;-80
2021/07/15 04:54:43;;;;;;;;;;;;;;;-142.75;80.98;76643.13;5032884;28;20011;-82
2021/07/15 04:57:09;;;;;;;;;;;;;;;-142.75;80.85;76637.22;5032928;28;20436;-84
2021/07/15 04:59:35;;;;;;;;;;;;;;;-142.75;80.92;76639.19;5023350;28;20314;-82
2021/07/15 05:02:00;;;;;;;;;;;;;;;-142.75;80.76;76641.16;5037476;28;19917;-82
2021/07/15 05:04:26;;;;;;;;;;;;;;;-142.75;80.84;76637.22;5021191;28;19917;-82
2021/07/15 05:06:51;;;;;;;;;;;;;;;-142.75;80.60;76639.19;5019399;28;19917;-82
2021/07/15 05:09:18;;;;;;;;;;;;;;;-142.75;80.69;76635.25;5031298;28;22167;-80
2021/07/15 05:11:43;;;;;;;;;;;;;;;-142.75;80.64;76643.13;5024508;28;20013;-87
2021/07/15 05:14:09;;;;;;;;;;;;;;;-142.75;80.69;76645.09;5031314;28;19916;-85
2021/07/15 05:16:34;;;;;;;;;;;;;;;-142.75;80.58;76641.16;5031661;28;20429;-78
2021/07/15 05:18:59;;;;;;;;;;;;;;;-142.75;80.55;76645.09;5024045;28;19917;-86
2021/07/15 05:21:24;;;;;;;;;;;;;;;-142.75;80.63;76652.97;5022267;28;19921;-83
2021/07/15 05:23:49;;;;;;;;;;;;;;;-142.75;80.37;76645.09;5023744;28;19917;-83
2021/07/15 05:26:15;;;;;;;;;;;;;;;-142.75;80.25;76637.22;5026006;28;19921;-81
2021/07/15 05:28:41;;;;;;;;;;;;;;;-142.75;79.98;76643.13;5024830;28;19943;-83
2021/07/15 05:31:06;;;;;;;;;;;;;;;-142.75;79.82;76637.22;5019986;28;19921;-84
2021/07/15 05:33:31;;;;;;;;;;;;;;;-142.75;79.51;76635.25;5021572;28;19921;-84
2021/07/15 05:35:56;;;;;;;;;;;;;;;-142.75;79.46;76639.19;5031870;28;20348;-82
2021/07/15 05:38:21;;;;;;;;;;;;;;;-142.75;79.38;76631.31;5039523;28;19928;-83
2021/07/15 05:40:47;;;;;;;;;;;;;;;-142.75;79.44;76637.22;5019118;28;19921;-84
2021/07/15 05:43:12;;;;;;;;;;;;;;;-142.75;79.24;76627.38;5030797;28;19924;-81
2021/07/15 05:45:37;;;;;;;;;;;;;;;-142.75;78.83;76633.28;5030462;28;20008;-84
2021/07/15 05:48:02;;;;;;;;;;;;;;;-142.75;78.55;76629.34;5030500;28;19921;-84
2021/07/15 05:50:28;;;;;;;;;;;;;;;-142.75;78.55;76629.34;5030174;28;19921;-81
2021/07/15 05:52:53;;;;;;;;;;;;;;;-142.75;78.42;76637.22;5022002;28;20401;-84
2021/07/15 05:55:18;;;;;;;;;;;;;;;-142.75;78.30;76633.28;5030424;28;19917;-83
2021/07/15 05:57:43;;;;;;;;;;;;;;;-142.75;78.07;76639.19;5039542;28;20003;-83
2021/07/15 06:00:10;;;;;;;;;;;;;;;-142.75;77.81;76633.28;5016117;28;19928;-82
2021/07/15 06:02:35;;;;;;;;;;;;;;;-142.75;77.76;76639.19;5023250;28;19921;-85
2021/07/15 06:05:00;;;;;;;;;;;;;;;-142.75;77.78;76635.25;5020897;28;19917;-85
2021/07/15 06:07:27;;;;;;;;;;;;;;;-142.75;77.31;76635.25;5030738;28;20448;-82
2021/07/15 06:09:52;;;;;;;;;;;;;;;-142.75;77.48;76639.19;5029722;28;19917;-84
2021/07/15 06:12:17;;;;;;;;;;;;;;;-142.75;77.42;76633.28;5032931;28;19917;-81
2021/07/15 06:14:42;;;;;;;;;;;;;;;-142.75;77.32;76637.22;5038458;28;19963;-82
2021/07/15 06:17:07;;;;;;;;;;;;;;;-142.75;77.10;76639.19;5034938;28;19917;-82
2021/07/15 06:19:33;;;;;;;;;;;;;;;-142.75;76.92;76639.19;5032644;28;19921;-85
2021/07/15 06:21:58;;;;;;;;;;;;;;;-142.75;77.00;76643.13;5020910;28;19921;-84
2021/07/15 06:24:23;;;;;;;;;;;;;;;-142.75;76.90;76649.03;5029566;28;19917;-79
2021/07/15 06:26:48;;;;;;;;;;;;;;;-142.75;76.78;76652.97;5029290;28;19971;-83
2021/07/15 06:29:15;;;;;;;;;;;;;;;-142.75;76.54;76654.94;5030280;28;20530;-84
2021/07/15 06:31:40;;;;;;;;;;;;;;;-142.75;76.38;76652.97;5024377;28;19969;-86
2021/07/15 06:34:05;;;;;;;;;;;;;;;-142.75;76.37;76649.03;5021508;28;19975;-83
2021/07/15 06:36:31;;;;;;;;;;;;;;;-142.75;76.37;76645.09;5031843;28;19978;-82
2021/07/15 06:38:56;;;;;;;;;;;;;;;-142.75;76.06;76645.09;5019576;28;19924;-84
2021/07/15 06:41:22;;;;;;;;;;;;;;;-142.75;76.21;76649.03;5019602;28;20315;-80
2021/07/15 06:43:47;;;;;;;;;;;;;;;-142.75;76.20;76641.16;5024189;28;19931;-83
2021/07/15 06:46:12;;;;;;;;;;;;;;;-142.75;76.13;76641.16;5038318;28;19932;-82
2021/07/15 06:48:37;;;;;;;;;;;;;;;-142.75;75.91;76643.13;5019513;28;19925;-82
2021/07/15 06:51:03;;;;;;;;;;;;;;;-142.75;75.90;76641.16;5039172;28;20012;-83
2021/07/15 06:53:28;;;;;;;;;;;;;;;-142.75;75.78;76641.16;5029222;28;19932;-84
2021/07/15 06:55:53;;;;;;;;;;;;;;;-142.75;75.16;76637.22;5016884;28;19925;-80
2021/07/15 06:58:18;;;;;;;;;;;;;;;-142.75;75.21;76631.31;5039024;28;19924;-83
2021/07/15 07:00:43;;;;;;;;;;;;;;;-142.75;75.05;76633.28;5028865;28;19929;-85
2021/07/15 07:03:12;;;;;;;;;;;;;;;-142.75;75.29;76635.25;5023324;28;19925;-80
2021/07/15 07:05:37;;;;;;;;;;;;;;;-142.75;75.32;76623.44;5014463;28;19928;-84
2021/07/15 07:08:02;;;;;;;;;;;;;;;-142.75;75.23;76633.28;5020381;28;19917;-82
2021/07/15 07:10:27;;;;;;;;;;;;;;;-142.75;74.85;76627.38;5016501;28;19920;-80
2021/07/15 07:12:53;;;;;;;;;;;;;;;-142.75;74.81;76635.25;5028962;28;19917;-80
2021/07/15 07:15:18;;;;;;;;;;;;;;;-142.75;74.81;76641.16;5020012;28;20008;-83
2021/07/15 07:17:44;;;;;;;;;;;;;;;-142.75;74.78;76633.28;5017219;28;19971;-81
2021/07/15 07:20:10;;;;;;;;;;;;;;;-142.75;74.64;76635.25;5018931;28;19928;-81
2021/07/15 07:22:36;;;;;;;;;;;;;;;-142.75;74.23;76635.25;5019419;28;20386;-81
2021/07/15 07:25:02;;;;;;;;;;;;;;;-142.75;74.19;76635.25;5028944;28;19928;-82
2021/07/15 07:27:27;;;;;;;;;;;;;;;-142.75;73.98;76637.22;5028916;28;19917;-82
2021/07/15 07:29:53;;;;;;;;;;;;;;;-142.75;73.74;76639.19;5029372;28;19917;-80
2021/07/15 07:32:18;;;;;;;;;;;;;;;-142.75;73.76;76633.28;5029465;28;19917;-81
2021/07/15 07:34:43;;;;;;;;;;;;;;;-142.75;73.31;76633.28;5022325;28;19964;-80
2021/07/15 07:37:08;;;;;;;;;;;;;;;-142.75;73.31;76631.31;5018554;28;19917;-82
2021/07/15 07:39:34;;;;;;;;;;;;;;;-142.75;73.14;76625.41;5027733;28;19917;-81
2021/07/15 07:41:59;;;;;;;;;;;;;;;-142.75;72.60;76619.50;5028574;28;20493;-83
2021/07/15 07:44:24;;;;;;;;;;;;;;;-142.75;72.51;76611.63;5032946;28;19924;-81
2021/07/15 07:46:49;;;;;;;;;;;;;;;-142.75;72.63;76607.69;5041302;28;19917;-86
2021/07/15 07:49:15;;;;;;;;;;;;;;;-142.75;72.32;76593.91;5022569;28;19975;-80
2021/07/15 07:51:40;;;;;;;;;;;;;;;-142.75;72.37;76584.06;5039706;28;19924;-80
2021/07/15 07:54:05;;;;;;;;;;;;;;;-142.75;71.89;76570.28;5025639;28;19921;-82
2021/07/15 07:56:32;;;;;;;;;;;;;;;-142.75;71.78;76568.31;5037630;28;19909;-81
2021/07/15 07:58:57;;;;;;;;;;;;;;;-142.75;71.28;76572.25;5033251;28;19924;-83
2021/07/15 08:01:22;;;;;;;;;;;;;;;-142.75;71.63;76580.13;5041267;28;19921;-81
2021/07/15 08:03:48;;;;;;;;;;;;;;;-142.75;71.68;76591.94;5035401;28;19924;-80
2021/07/15 08:06:14;;;;;;;;;;;;;;;-142.75;71.90;76593.91;5020767;28;19942;-81
2021/07/15 08:08:40;;;;;;;;;;;;;;;-142.75;71.77;76593.91;5033721;28;19963;-81
2021/07/15 08:11:05;;;;;;;;;;;;;;;-142.75;71.64;76586.03;5032833;28;20332;-80
2021/07/15 08:13:30;;;;;;;;;;;;;;;-142.75;71.21;76588.00;5038347;28;20329;-81
2021/07/15 08:15:56;;;;;;;;;;;;;;;-142.75;71.56;76589.97;5021432;28;19921;-82
2021/07/15 08:18:30;;;;;;;;;;;;;;;-142.75;71.34;76591.94;5036004;28;20007;-82
2021/07/15 08:20:55;;;;;;;;;;;;;;;-142.75;71.15;76586.03;5039743;28;19944;-82
2021/07/15 08:23:20;;;;;;;;;;;;;;;-142.75;70.97;76582.09;5019705;28;19917;-81
2021/07/15 08:25:46;;;;;;;;;;;;;;;-142.75;70.96;76591.94;5032620;28;19917;-81
2021/07/15 08:28:11;;;;;;;;;;;;;;;-142.75;70.87;76593.91;5040871;28;19917;-81
2021/07/15 08:30:36;;;;;;;;;;;;;;;-142.75;70.71;76599.81;5032178;28;19917;-81
2021/07/15 08:33:02;;;;;;;;;;;;;;;-142.75;71.30;76595.88;5021579;28;19923;-79
2021/07/15 08:35:28;;;;;;;;;;;;;;;-142.75;71.10;76593.91;5031900;28;19918;-79
2021/07/15 08:37:54;;;;;;;;;;;;;;;-142.75;70.92;76597.84;5026377;28;20417;-82
2021/07/15 08:40:20;;;;;;;;;;;;;;;-142.75;70.58;76586.03;5027680;28;19979;-80
2021/07/15 08:42:45;;;;;;;;;;;;;;;-142.75;71.01;76582.09;5039704;28;19925;-82
2021/07/15 08:45:10;;;;;;;;;;;;;;;-142.75;71.09;76574.22;5036164;28;19917;-82
2021/07/15 08:47:40;;;;;;;;;;;;;;;-142.75;70.62;76558.47;5019332;28;20012;-85
2021/07/15 08:50:06;;;;;;;;;;;;;;;-142.75;69.91;76558.47;5020013;28;19921;-76
2021/07/15 08:52:33;;;;;;;;;;;;;;;-142.75;69.23;76554.53;5031026;28;20498;-79
2021/07/15 08:55:01;;;;;;;;;;;;;;;-142.75;70.09;76546.66;5034092;28;20305;-79
2021/07/15 08:57:27;;;;;;;;;;;;;;;-142.75;69.29;76554.53;5014126;28;20003;-81
2021/07/15 08:59:52;;;;;;;;;;;;;;;-142.75;69.45;76554.53;5021405;28;20067;-79
2021/07/15 09:02:18;;;;;;;;;;;;;;;-142.75;69.53;76558.47;5031085;28;19924;-78
2021/07/15 09:04:44;;;;;;;;;;;;;;;-142.75;68.72;76550.59;5030719;28;19928;-80
2021/07/15 09:07:09;;;;;;;;;;;;;;;-142.75;68.86;76570.28;5030744;28;19943;-81
2021/07/15 09:09:34;;;;;;;;;;;;;;;-142.75;68.46;76568.31;5026063;28;19917;-81
2021/07/15 09:12:00;;;;;;;;;;;;;;;-142.75;69.52;76574.22;5018888;28;19917;-78
2021/07/15 09:14:25;;;;;;;;;;;;;;;-142.75;68.99;76562.41;5025449;28;20020;-80
2021/07/15 09:16:55;;;;;;;;;;;;;;;-142.75;69.29;76552.56;5031160;28;19917;-78
2021/07/15 09:19:22;;;;;;;;;;;;;;;-142.75;68.33;76552.56;5023285;28;20382;-79
2021/07/15 09:21:47;;;;;;;;;;;;;;;-142.75;68.81;76554.53;5038735;28;19921;-81
2021/07/15 09:24:32;;;;;;;;;;;;;;;-142.75;67.75;76554.53;5018948;28;20433;-80
2021/07/15 09:26:58;;;;;;;;;;;;;;;-142.75;68.40;76542.72;5034247;28;20346;-79
2021/07/15 09:29:23;;;;;;;;;;;;;;;-142.75;68.40;76528.97;5021154;28;19960;-81
2021/07/15 09:31:52;;;;;;;;;;;;;;;-142.75;67.76;76511.25;5031253;28;20276;-81
2021/07/15 09:34:17;;;;;;;;;;;;;;;-142.75;66.95;76507.31;5031245;28;19984;-80
2021/07/15 09:36:43;;;;;;;;;;;;;;;-142.75;68.03;76503.38;5031191;28;20016;-77
2021/07/15 09:39:25;;;;;;;;;;;;;;;-142.75;67.28;76511.25;5015935;28;20008;-78
2021/07/15 09:42:05;;;;;;;;;;;;;;;-142.75;67.56;76519.13;5020808;28;19921;-81
2021/07/15 09:44:31;;;;;;;;;;;;;;;-142.75;67.41;76515.19;5023104;28;19963;-77
2021/07/15 09:46:56;;;;;;;;;;;;;;;-142.75;67.86;76513.22;5020070;28;19925;-83
2021/07/15 09:49:29;;;;;;;;;;;;;;;-142.75;68.06;76509.28;5031236;28;19917;-80
2021/07/15 09:51:57;;;;;;;;;;;;;;;-142.75;67.23;76519.13;5030557;28;19960;-79
2021/07/15 09:54:23;;;;;;;;;;;;;;;-142.75;67.53;76521.09;5029837;28;19917;-81
2021/07/15 09:56:48;;;;;;;;;;;;;;;-142.75;67.76;76525.03;5030601;28;20011;-80
2021/07/15 09:59:14;;;;;;;;;;;;;;;-142.75;67.56;76525.03;5039037;28;20290;-78
2021/07/15 10:01:43;;;;;;;;;;;;;;;-142.75;67.29;76523.06;5036253;28;20457;-81
2021/07/15 10:04:08;;;;;;;;;;;;;;;-142.75;67.44;76530.91;5026633;28;20405;-80
2021/07/15 10:06:47;;;;;;;;;;;;;;;-142.75;67.25;76542.72;5015881;28;19917;-82
2021/07/15 10:09:22;;;;;;;;;;;;;;;-142.75;67.23;76550.59;5029361;28;20012;-84
2021/07/15 10:11:48;;;;;;;;;;;;;;;-142.75;67.94;76542.72;5029371;28;19979;-81
2021/07/15 10:14:15;;;;;;;;;;;;;;;-142.75;67.78;76554.53;5029326;28;19917;-79
2021/07/15 10:16:41;;;;;;;;;;;;;;;-142.75;67.60;76548.63;5031204;28;19975;-81
2021/07/15 10:19:07;;;;;;;;;;;;;;;-142.75;67.61;76534.84;5021052;28;19952;-78
2021/07/15 10:21:34;;;;;;;;;;;;;;;-142.75;66.95;76540.75;5016155;28;19921;-82
2021/07/15 10:24:12;;;;;;;;;;;;;;;-142.75;67.25;76548.63;5024071;28;20376;-81
2021/07/15 10:26:38;;;;;;;;;;;;;;;-142.75;68.12;76540.75;5019078;28;19917;-81
2021/07/15 10:29:03;;;;;;;;;;;;;;;-142.75;67.04;76538.78;5030789;28;20298;-81
2021/07/15 10:31:28;;;;;;;;;;;;;;;-142.75;66.82;76542.72;5020392;28;19975;-78
2021/07/15 10:33:54;;;;;;;;;;;;;;;-142.75;67.05;76548.63;5030693;28;19917;-80
2021/07/15 10:36:19;;;;;;;;;;;;;;;-142.75;67.32;76556.50;5033525;28;19924;-80
2021/07/15 10:38:45;;;;;;;;;;;;;;;-142.75;68.15;76558.47;5020246;28;19925;-80
2021/07/15 10:41:11;;;;;;;;;;;;;;;-142.75;68.72;76568.31;5029278;28;19921;-81
2021/07/15 10:43:37;;;;;;;;;;;;;;;-142.75;69.14;76580.13;5031066;28;20011;-78
2021/07/15 10:46:04;;;;;;;;;;;;;;;-142.75;69.88;76582.09;5030814;28;19921;-81
2021/07/15 10:48:30;;;;;;;;;;;;;;;-142.75;71.05;76593.91;5025605;28;19921;-82
2021/07/15 10:50:56;;;;;;;;;;;;;;;-142.75;71.07;76601.78;5030206;28;19921;-79
2021/07/15 10:53:22;;;;;;;;;;;;;;;-142.75;71.10;76605.72;5022136;28;19917;-83
2021/07/15 10:55:50;;;;;;;;;;;;;;;-142.75;71.48;76609.66;5030554;28;19940;-82
2021/07/15 10:58:35;;;;;;;;;;;;;;;-142.75;71.33;76617.53;5026485;28;19976;-84
2021/07/15 11:01:01;;;;;;;;;;;;;;;-142.75;71.18;76611.63;5018443;28;20460;-82
2021/07/15 11:03:27;;;;;;;;;;;;;;;-142.75;71.10;76605.72;5018029;28;19917;-80
2021/07/15 11:05:57;;;;;;;;;;;;;;;-142.75;70.49;76603.75;5030532;28;20008;-80
2021/07/15 11:08:41;;;;;;;;;;;;;;;-142.75;70.98;76597.84;5036142;28;20371;-79
2021/07/15 11:11:07;;;;;;;;;;;;;;;-142.75;71.42;76601.78;5021852;28;19971;-81
2021/07/15 11:13:32;;;;;;;;;;;;;;;-142.75;70.91;76605.72;5028823;28;19925;-80
2021/07/15 11:15:58;;;;;;;;;;;;;;;-142.75;70.72;76601.78;5018599;28;19917;-82
2021/07/15 11:18:45;;;;;;;;;;;;;;;-142.75;70.74;76586.03;5021239;28;19917;-82
2021/07/15 11:21:26;;;;;;;;;;;;;;;-142.75;70.08;76591.94;5015671;28;19921;-82
2021/07/15 11:24:11;;;;;;;;;;;;;;;-142.75;69.07;76603.75;5019319;28;20016;-79
2021/07/15 11:26:38;;;;;;;;;;;;;;;-142.75;69.12;76611.63;5025484;28;20295;-80
2021/07/15 11:29:04;;;;;;;;;;;;;;;-142.75;69.39;76615.56;5030476;28;20386;-81
2021/07/15 11:31:45;;;;;;;;;;;;;;;-142.75;69.63;76625.41;5029871;28;19917;-82
2021/07/15 11:34:30;;;;;;;;;;;;;;;-142.75;69.70;76623.44;5029402;28;20071;-83
2021/07/15 11:37:16;;;;;;;;;;;;;;;-142.75;70.23;76619.50;5020680;28;19928;-79
2021/07/15 11:39:41;;;;;;;;;;;;;;;-142.75;69.54;76617.53;5019193;28;19917;-80
2021/07/15 11:42:16;;;;;;;;;;;;;;;-142.75;69.57;76619.50;5034072;28;19917;-80
2021/07/15 11:44:55;;;;;;;;;;;;;;;-142.75;69.49;76619.50;5029938;28;20451;-80
2021/07/15 11:47:39;;;;;;;;;;;;;;;-142.75;69.26;76625.41;5030130;28;19917;-81
2021/07/15 11:50:05;;;;;;;;;;;;;;;-142.75;69.43;76609.66;5029333;28;19932;-82
2021/07/15 11:52:30;;;;;;;;;;;;;;;-142.75;69.35;76609.66;5026491;28;20382;-81
2021/07/15 11:54:56;;;;;;;;;;;;;;;-142.75;68.92;76597.84;5030191;28;20390;-83
2021/07/15 11:57:23;;;;;;;;;;;;;;;-142.75;68.42;76593.91;5014454;28;20007;-79
2021/07/15 11:59:51;;;;;;;;;;;;;;;-142.75;68.27;76609.66;5029739;28;19996;-80
2021/07/15 12:02:19;;;;;;;;;;;;;;;-142.75;68.97;76605.72;5031399;28;19925;-82
2021/07/15 12:05:03;;;;;;;;;;;;;;;-142.75;68.59;76613.59;5030519;28;19936;-83
2021/07/15 12:07:28;;;;;;;;;;;;;;;-142.75;68.21;76609.66;5029503;28;19944;-80
2021/07/15 12:09:53;;;;;;;;;;;;;;;-142.75;68.36;76621.47;5022625;28;20526;-82
2021/07/15 12:12:19;;;;;;;;;;;;;;;-142.75;68.39;76621.47;5029900;28;19964;-79
2021/07/15 12:14:51;;;;;;;;;;;;;;;-142.75;68.27;76629.34;5030391;28;20024;-82
2021/07/15 12:17:16;;;;;;;;;;;;;;;-142.75;68.62;76637.22;5029222;28;20413;-80
2021/07/15 12:19:52;;;;;;;;;;;;;;;-142.75;68.87;76641.16;5037110;28;19917;-78
2021/07/15 12:22:17;;;;;;;;;;;;;;;-142.75;68.98;76641.16;5024768;28;19999;-83
2021/07/15 12:24:42;;;;;;;;;;;;;;;-142.75;68.71;76645.09;5034447;28;20386;-81
2021/07/15 12:27:10;;;;;;;;;;;;;;;-142.75;69.13;76643.13;5035138;28;19917;-85